sensor_id;sensor_type;location;lat;lon;timestamp;pressure;altitude;pressure_sealevel;temperature;humidity
35649;BME280;21768;48.562;13.414;2022-10-16T00:00:17;97374.16;;;15.54;81.49
35649;BME280;21768;48.562;13.414;2022-10-16T00:02:42;97381.16;;;15.58;81.47
35649;BME280;21768;48.562;13.414;2022-10-16T00:05:07;97376.00;;;15.56;81.27
35649;BME280;21768;48.562;13.414;2022-10-16T00:07:33;97384.50;;;15.57;81.22
35649;BME280;21768;48.562;13.414;2022-10-16T00:09:58;97365.59;;;15.52;80.98
35649;BME280;21768;48.562;13.414;2022-10-16T00:12:23;97377.28;;;15.48;81.28
35649;BME280;21768;48.562;13.414;2022-10-16T00:14:49;97374.81;;;15.50;81.36
35649;BME280;21768;48.562;13.414;2022-10-16T00:17:14;97365.38;;;15.47;81.10
35649;BME280;21768;48.562;13.414;2022-10-16T00:19:39;97366.84;;;15.42;81.50
35649;BME280;21768;48.562;13.414;2022-10-16T00:22:05;97366.69;;;15.39;81.29
35649;BME280;21768;48.562;13.414;2022-10-16T00:24:30;97372.56;;;15.38;81.56
35649;BME280;21768;48.562;13.414;2022-10-16T00:26:55;97375.13;;;15.38;81.67
35649;BME280;21768;48.562;13.414;2022-10-16T00:29:21;97384.56;;;15.41;81.80
35649;BME280;21768;48.562;13.414;2022-10-16T00:31:46;97388.84;;;15.42;81.48
35649;BME280;21768;48.562;13.414;2022-10-16T00:34:11;97394.72;;;15.41;81.44
35649;BME280;21768;48.562;13.414;2022-10-16T00:36:37;97386.31;;;15.42;81.54
35649;BME280;21768;48.562;13.414;2022-10-16T00:39:02;97390.59;;;15.43;81.49
35649;BME280;21768;48.562;13.414;2022-10-16T00:41:28;97392.25;;;15.42;81.39
35649;BME280;21768;48.562;13.414;2022-10-16T00:43:59;97396.47;;;15.42;81.50
35649;BME280;21768;48.562;13.414;2022-10-16T00:46:35;97403.31;;;15.43;81.37
35649;BME280;21768;48.562;13.414;2022-10-16T00:49:13;97405.78;;;15.41;81.41
35649;BME280;21768;48.562;13.414;2022-10-16T00:51:42;97402.44;;;15.42;81.18
35649;BME280;21768;48.562;13.414;2022-10-16T00:54:11;97404.91;;;15.41;81.40
35649;BME280;21768;48.562;13.414;2022-10-16T00:56:39;97393.00;;;15.40;81.25
35649;BME280;21768;48.562;13.414;2022-10-16T00:59:10;97402.38;;;15.41;81.30
35649;BME280;21768;48.562;13.414;2022-10-16T01:01:36;97400.63;;;15.40;81.22
35649;BME280;21768;48.562;13.414;2022-10-16T01:04:02;97394.41;;;15.33;81.23
35649;BME280;21768;48.562;13.414;2022-10-16T01:17:47;97405.22;;;15.11;81.68
35649;BME280;21768;48.562;13.414;2022-10-16T01:20:22;97396.53;;;15.06;81.68
35649;BME280;21768;48.562;13.414;2022-10-16T01:23:10;97402.34;;;15.04;81.78
35649;BME280;21768;48.562;13.414;2022-10-16T01:28:25;97384.91;;;14.93;81.87
35649;BME280;21768;48.562;13.414;2022-10-16T01:30:58;97393.00;;;14.86;82.19
35649;BME280;21768;48.562;13.414;2022-10-16T01:33:35;97396.50;;;14.88;82.22
35649;BME280;21768;48.562;13.414;2022-10-16T01:36:07;97403.31;;;14.89;82.38
35649;BME280;21768;48.562;13.414;2022-10-16T01:38:38;97404.19;;;14.90;82.28
35649;BME280;21768;48.562;13.414;2022-10-16T01:41:12;97400.84;;;14.91;82.52
35649;BME280;21768;48.562;13.414;2022-10-16T01:43:49;97407.69;;;14.92;82.36
35649;BME280;21768;48.562;13.414;2022-10-16T01:46:20;97413.41;;;14.88;82.30
35649;BME280;21768;48.562;13.414;2022-10-16T01:48:48;97413.25;;;14.85;82.47
35649;BME280;21768;48.562;13.414;2022-10-16T01:51:15;97411.41;;;14.81;82.47
35649;BME280;21768;48.562;13.414;2022-10-16T01:53:45;97408.72;;;14.78;82.57
35649;BME280;21768;48.562;13.414;2022-10-16T01:56:13;97411.88;;;14.74;82.61
35649;BME280;21768;48.562;13.414;2022-10-16T01:58:53;97405.63;;;14.67;82.77
35649;BME280;21768;48.562;13.414;2022-10-16T02:01:22;97409.47;;;14.59;82.65
35649;BME280;21768;48.562;13.414;2022-10-16T02:03:50;97414.16;;;14.51;82.78
35649;BME280;21768;48.562;13.414;2022-10-16T02:06:17;97410.69;;;14.49;83.13
35649;BME280;21768;48.562;13.414;2022-10-16T02:08:43;97418.28;;;14.49;82.69
35649;BME280;21768;48.562;13.414;2022-10-16T02:11:09;97418.44;;;14.52;82.52
35649;BME280;21768;48.562;13.414;2022-10-16T02:13:47;97423.69;;;14.55;82.29
35649;BME280;21768;48.562;13.414;2022-10-16T02:16:14;97422.09;;;14.57;82.11
35649;BME280;21768;48.562;13.414;2022-10-16T02:18:41;97422.19;;;14.59;82.30
35649;BME280;21768;48.562;13.414;2022-10-16T02:21:23;97421.44;;;14.61;82.10
35649;BME280;21768;48.562;13.414;2022-10-16T02:24:20;97422.38;;;14.63;82.06
35649;BME280;21768;48.562;13.414;2022-10-16T02:26:51;97420.50;;;14.59;81.92
35649;BME280;21768;48.562;13.414;2022-10-16T02:29:23;97415.19;;;14.55;82.23
35649;BME280;21768;48.562;13.414;2022-10-16T02:31:52;97423.84;;;14.58;82.14
35649;BME280;21768;48.562;13.414;2022-10-16T02:34:21;97429.03;;;14.61;81.91
35649;BME280;21768;48.562;13.414;2022-10-16T02:36:48;97425.34;;;14.55;82.03
35649;BME280;21768;48.562;13.414;2022-10-16T02:39:16;97437.66;;;14.47;82.27
35649;BME280;21768;48.562;13.414;2022-10-16T02:41:43;97435.84;;;14.45;82.66
35649;BME280;21768;48.562;13.414;2022-10-16T02:44:08;97431.38;;;14.41;82.45
35649;BME280;21768;48.562;13.414;2022-10-16T02:46:34;97429.53;;;14.38;82.40
35649;BME280;21768;48.562;13.414;2022-10-16T02:48:59;97433.66;;;14.36;82.35
35649;BME280;21768;48.562;13.414;2022-10-16T02:51:24;97431.78;;;14.32;82.35
35649;BME280;21768;48.562;13.414;2022-10-16T02:53:50;97436.16;;;14.35;82.41
35649;BME280;21768;48.562;13.414;2022-10-16T02:56:15;97427.72;;;14.36;82.09
35649;BME280;21768;48.562;13.414;2022-10-16T02:58:41;97433.38;;;14.30;81.96
35649;BME280;21768;48.562;13.414;2022-10-16T03:01:06;97438.44;;;14.30;82.01
35649;BME280;21768;48.562;13.414;2022-10-16T03:03:31;97440.19;;;14.31;82.04
35649;BME280;21768;48.562;13.414;2022-10-16T03:05:57;97444.47;;;14.32;81.75
35649;BME280;21768;48.562;13.414;2022-10-16T03:08:22;97445.44;;;14.34;81.51
35649;BME280;21768;48.562;13.414;2022-10-16T03:10:51;97452.97;;;14.33;81.45
35649;BME280;21768;48.562;13.414;2022-10-16T03:13:16;97457.34;;;14.35;81.43
35649;BME280;21768;48.562;13.414;2022-10-16T03:15:43;97461.59;;;14.36;81.53
35649;BME280;21768;48.562;13.414;2022-10-16T03:18:09;97464.13;;;14.36;81.39
35649;BME280;21768;48.562;13.414;2022-10-16T03:20:34;97468.28;;;14.34;81.57
35649;BME280;21768;48.562;13.414;2022-10-16T03:23:00;97477.56;;;14.34;81.48
35649;BME280;21768;48.562;13.414;2022-10-16T03:25:25;97481.84;;;14.35;81.50
35649;BME280;21768;48.562;13.414;2022-10-16T03:27:51;97475.88;;;14.34;81.58
35649;BME280;21768;48.562;13.414;2022-10-16T03:30:17;97469.84;;;14.32;81.60
35649;BME280;21768;48.562;13.414;2022-10-16T03:32:44;97470.81;;;14.34;81.60
35649;BME280;21768;48.562;13.414;2022-10-16T03:35:09;97474.13;;;14.33;81.65
35649;BME280;21768;48.562;13.414;2022-10-16T03:37:34;97477.63;;;14.35;81.34
35649;BME280;21768;48.562;13.414;2022-10-16T03:40:00;97464.94;;;14.35;81.43
35649;BME280;21768;48.562;13.414;2022-10-16T03:42:25;97454.78;;;14.35;81.31
35649;BME280;21768;48.562;13.414;2022-10-16T03:44:51;97438.59;;;14.33;81.30
35649;BME280;21768;48.562;13.414;2022-10-16T03:47:16;97453.69;;;14.30;81.27
35649;BME280;21768;48.562;13.414;2022-10-16T03:49:45;97474.69;;;14.27;81.39
35649;BME280;21768;48.562;13.414;2022-10-16T03:52:11;97481.44;;;14.27;81.71
35649;BME280;21768;48.562;13.414;2022-10-16T03:54:36;97478.19;;;14.29;81.56
35649;BME280;21768;48.562;13.414;2022-10-16T03:57:01;97475.88;;;14.34;81.36
35649;BME280;21768;48.562;13.414;2022-10-16T03:59:27;97483.41;;;14.33;81.41
35649;BME280;21768;48.562;13.414;2022-10-16T04:01:52;97474.84;;;14.30;81.35
35649;BME280;21768;48.562;13.414;2022-10-16T04:04:17;97482.38;;;14.29;81.30
35649;BME280;21768;48.562;13.414;2022-10-16T04:06:43;97478.66;;;14.22;81.51
35649;BME280;21768;48.562;13.414;2022-10-16T04:09:08;97481.75;;;14.17;81.71
35649;BME280;21768;48.562;13.414;2022-10-16T04:11:34;97478.94;;;14.12;81.65
35649;BME280;21768;48.562;13.414;2022-10-16T04:13:59;97478.03;;;14.10;81.84
35649;BME280;21768;48.562;13.414;2022-10-16T04:16:24;97484.59;;;14.07;81.87
35649;BME280;21768;48.562;13.414;2022-10-16T04:18:50;97487.44;;;13.96;82.04
35649;BME280;21768;48.562;13.414;2022-10-16T04:21:15;97482.66;;;13.86;82.38
35649;BME280;21768;48.562;13.414;2022-10-16T04:23:42;97475.78;;;13.84;82.59
35649;BME280;21768;48.562;13.414;2022-10-16T04:26:07;97483.22;;;13.81;82.86
35649;BME280;21768;48.562;13.414;2022-10-16T04:28:32;97482.44;;;13.82;83.06
35649;BME280;21768;48.562;13.414;2022-10-16T04:30:58;97482.81;;;13.73;82.92
35649;BME280;21768;48.562;13.414;2022-10-16T04:33:23;97480.72;;;13.66;83.33
35649;BME280;21768;48.562;13.414;2022-10-16T04:35:48;97492.44;;;13.64;83.39
35649;BME280;21768;48.562;13.414;2022-10-16T04:38:20;97490.69;;;13.63;83.41
35649;BME280;21768;48.562;13.414;2022-10-16T04:40:46;97499.16;;;13.63;83.46
35649;BME280;21768;48.562;13.414;2022-10-16T04:43:11;97509.09;;;13.59;83.30
35649;BME280;21768;48.562;13.414;2022-10-16T04:45:36;97512.25;;;13.55;83.15
35649;BME280;21768;48.562;13.414;2022-10-16T04:48:02;97510.31;;;13.51;83.16
35649;BME280;21768;48.562;13.414;2022-10-16T04:50:27;97518.72;;;13.50;83.60
35649;BME280;21768;48.562;13.414;2022-10-16T04:52:53;97522.72;;;13.46;83.21
35649;BME280;21768;48.562;13.414;2022-10-16T04:55:18;97513.38;;;13.45;83.20
35649;BME280;21768;48.562;13.414;2022-10-16T04:57:43;97509.97;;;13.45;83.39
35649;BME280;21768;48.562;13.414;2022-10-16T05:00:09;97505.69;;;13.44;83.06
35649;BME280;21768;48.562;13.414;2022-10-16T05:02:35;97501.41;;;13.43;82.98
35649;BME280;21768;48.562;13.414;2022-10-16T05:05:00;97498.00;;;13.42;82.92
35649;BME280;21768;48.562;13.414;2022-10-16T05:07:25;97502.19;;;13.42;82.94
35649;BME280;21768;48.562;13.414;2022-10-16T05:09:51;97503.94;;;13.43;82.64
35649;BME280;21768;48.562;13.414;2022-10-16T05:12:16;97509.00;;;13.43;82.66
35649;BME280;21768;48.562;13.414;2022-10-16T05:14:42;97514.34;;;13.47;82.71
35649;BME280;21768;48.562;13.414;2022-10-16T05:17:07;97513.63;;;13.50;82.70
35649;BME280;21768;48.562;13.414;2022-10-16T05:19:33;97510.50;;;13.54;82.58
35649;BME280;21768;48.562;13.414;2022-10-16T05:21:58;97513.81;;;13.53;82.44
35649;BME280;21768;48.562;13.414;2022-10-16T05:24:24;97520.47;;;13.51;82.59
35649;BME280;21768;48.562;13.414;2022-10-16T05:26:50;97532.16;;;13.49;82.57
35649;BME280;21768;48.562;13.414;2022-10-16T05:29:15;97521.34;;;13.51;82.44
35649;BME280;21768;48.562;13.414;2022-10-16T05:31:41;97532.53;;;13.55;82.56
35649;BME280;21768;48.562;13.414;2022-10-16T05:34:06;97534.19;;;13.54;82.48
35649;BME280;21768;48.562;13.414;2022-10-16T05:36:31;97532.59;;;13.56;82.42
35649;BME280;21768;48.562;13.414;2022-10-16T05:38:57;97544.22;;;13.53;82.33
35649;BME280;21768;48.562;13.414;2022-10-16T05:41:22;97540.91;;;13.54;82.65
35649;BME280;21768;48.562;13.414;2022-10-16T05:43:51;97544.41;;;13.56;82.86
35649;BME280;21768;48.562;13.414;2022-10-16T05:46:16;97554.72;;;13.59;82.75
35649;BME280;21768;48.562;13.414;2022-10-16T05:48:43;97560.56;;;13.58;82.75
35649;BME280;21768;48.562;13.414;2022-10-16T05:51:10;97556.63;;;13.63;83.15
35649;BME280;21768;48.562;13.414;2022-10-16T05:53:38;97550.22;;;13.70;83.21
35649;BME280;21768;48.562;13.414;2022-10-16T05:56:04;97567.28;;;13.72;83.12
35649;BME280;21768;48.562;13.414;2022-10-16T05:58:32;97562.28;;;13.74;83.18
35649;BME280;21768;48.562;13.414;2022-10-16T06:01:06;97565.53;;;13.71;83.30
35649;BME280;21768;48.562;13.414;2022-10-16T06:03:33;97562.53;;;13.78;83.44
35649;BME280;21768;48.562;13.414;2022-10-16T06:05:58;97573.03;;;13.84;83.35
35649;BME280;21768;48.562;13.414;2022-10-16T06:08:24;97564.47;;;13.82;83.51
35649;BME280;21768;48.562;13.414;2022-10-16T06:11:00;97566.34;;;13.86;83.20
35649;BME280;21768;48.562;13.414;2022-10-16T06:13:26;97562.25;;;13.88;83.29
35649;BME280;21768;48.562;13.414;2022-10-16T06:15:51;97564.94;;;13.91;83.05
35649;BME280;21768;48.562;13.414;2022-10-16T06:18:17;97575.25;;;13.94;82.99
35649;BME280;21768;48.562;13.414;2022-10-16T06:20:42;97575.25;;;13.94;83.15
35649;BME280;21768;48.562;13.414;2022-10-16T06:23:08;97570.88;;;14.07;83.11
35649;BME280;21768;48.562;13.414;2022-10-16T06:25:33;97563.72;;;14.16;82.84
35649;BME280;21768;48.562;13.414;2022-10-16T06:27:58;97562.31;;;14.21;82.49
35649;BME280;21768;48.562;13.414;2022-10-16T06:30:24;97572.97;;;14.30;82.83
35649;BME280;21768;48.562;13.414;2022-10-16T06:32:49;97571.00;;;14.41;82.67
35649;BME280;21768;48.562;13.414;2022-10-16T06:35:14;97567.38;;;14.52;82.48
35649;BME280;21768;48.562;13.414;2022-10-16T06:37:40;97584.03;;;14.63;82.14
35649;BME280;21768;48.562;13.414;2022-10-16T06:40:05;97587.94;;;14.73;82.10
35649;BME280;21768;48.562;13.414;2022-10-16T06:42:31;97588.41;;;14.82;81.61
35649;BME280;21768;48.562;13.414;2022-10-16T06:44:56;97600.69;;;14.90;81.51
35649;BME280;21768;48.562;13.414;2022-10-16T06:47:22;97609.84;;;15.03;81.16
35649;BME280;21768;48.562;13.414;2022-10-16T06:49:47;97606.78;;;15.10;80.68
35649;BME280;21768;48.562;13.414;2022-10-16T06:52:12;97600.34;;;15.17;80.66
35649;BME280;21768;48.562;13.414;2022-10-16T06:54:38;97603.44;;;15.27;80.71
35649;BME280;21768;48.562;13.414;2022-10-16T06:57:03;97595.38;;;15.36;80.52
35649;BME280;21768;48.562;13.414;2022-10-16T06:59:29;97595.53;;;15.39;80.56
35649;BME280;21768;48.562;13.414;2022-10-16T07:01:54;97602.34;;;15.40;80.22
35649;BME280;21768;48.562;13.414;2022-10-16T07:04:19;97587.09;;;15.40;80.17
35649;BME280;21768;48.562;13.414;2022-10-16T07:06:45;97593.28;;;15.45;80.16
35649;BME280;21768;48.562;13.414;2022-10-16T07:09:11;97600.03;;;15.45;80.23
35649;BME280;21768;48.562;13.414;2022-10-16T07:11:38;97606.88;;;15.46;80.01
35649;BME280;21768;48.562;13.414;2022-10-16T07:14:04;97608.63;;;15.47;80.06
35649;BME280;21768;48.562;13.414;2022-10-16T07:16:31;97618.16;;;15.51;80.05
35649;BME280;21768;48.562;13.414;2022-10-16T07:18:58;97612.63;;;15.58;79.93
35649;BME280;21768;48.562;13.414;2022-10-16T07:21:25;97613.19;;;15.70;79.69
35649;BME280;21768;48.562;13.414;2022-10-16T07:23:59;97622.00;;;15.94;79.36
35649;BME280;21768;48.562;13.414;2022-10-16T07:26:28;97618.84;;;16.18;78.53
35649;BME280;21768;48.562;13.414;2022-10-16T07:28:53;97619.75;;;16.38;78.15
35649;BME280;21768;48.562;13.414;2022-10-16T07:31:22;97622.88;;;16.50;77.49
35649;BME280;21768;48.562;13.414;2022-10-16T07:33:48;97612.22;;;16.58;77.07
35649;BME280;21768;48.562;13.414;2022-10-16T07:36:15;97613.84;;;16.56;77.13
35649;BME280;21768;48.562;13.414;2022-10-16T07:38:40;97623.75;;;16.50;77.42
35649;BME280;21768;48.562;13.414;2022-10-16T07:41:10;97626.91;;;16.45;77.92
35649;BME280;21768;48.562;13.414;2022-10-16T07:43:36;97634.25;;;16.39;77.45
35649;BME280;21768;48.562;13.414;2022-10-16T07:46:01;97630.81;;;16.38;77.78
35649;BME280;21768;48.562;13.414;2022-10-16T07:48:30;97639.19;;;16.36;77.71
35649;BME280;21768;48.562;13.414;2022-10-16T07:50:59;97646.75;;;16.34;77.77
35649;BME280;21768;48.562;13.414;2022-10-16T07:53:25;97654.41;;;16.34;77.88
35649;BME280;21768;48.562;13.414;2022-10-16T07:55:51;97645.16;;;16.36;78.01
35649;BME280;21768;48.562;13.414;2022-10-16T07:58:16;97645.31;;;16.39;78.02
35649;BME280;21768;48.562;13.414;2022-10-16T08:00:42;97649.66;;;16.42;77.68
35649;BME280;21768;48.562;13.414;2022-10-16T08:03:08;97650.84;;;16.48;77.17
35649;BME280;21768;48.562;13.414;2022-10-16T08:05:33;97649.53;;;16.56;76.79
35649;BME280;21768;48.562;13.414;2022-10-16T08:08:00;97654.47;;;16.71;76.58
35649;BME280;21768;48.562;13.414;2022-10-16T08:10:28;97656.41;;;16.96;76.38
35649;BME280;21768;48.562;13.414;2022-10-16T08:12:53;97653.69;;;17.51;74.94
35649;BME280;21768;48.562;13.414;2022-10-16T08:15:19;97646.50;;;18.03;73.75
35649;BME280;21768;48.562;13.414;2022-10-16T08:17:54;97651.53;;;18.45;72.68
35649;BME280;21768;48.562;13.414;2022-10-16T08:20:20;97658.09;;;18.83;71.50
35649;BME280;21768;48.562;13.414;2022-10-16T08:22:45;97660.59;;;19.03;70.79
35649;BME280;21768;48.562;13.414;2022-10-16T08:25:10;97654.28;;;19.18;70.69
35649;BME280;21768;48.562;13.414;2022-10-16T08:27:36;97654.03;;;19.85;69.23
35649;BME280;21768;48.562;13.414;2022-10-16T08:30:01;97649.78;;;20.66;66.79
35649;BME280;21768;48.562;13.414;2022-10-16T08:32:26;97660.50;;;20.83;66.21
35649;BME280;21768;48.562;13.414;2022-10-16T08:34:52;97656.78;;;21.31;64.56
35649;BME280;21768;48.562;13.414;2022-10-16T08:37:17;97670.81;;;21.76;63.46
35649;BME280;21768;48.562;13.414;2022-10-16T08:39:43;97665.47;;;21.68;63.95
35649;BME280;21768;48.562;13.414;2022-10-16T08:42:28;97666.97;;;22.29;62.64
35649;BME280;21768;48.562;13.414;2022-10-16T08:45:09;97677.88;;;22.56;60.39
35649;BME280;21768;48.562;13.414;2022-10-16T08:47:48;97676.00;;;22.12;61.81
35649;BME280;21768;48.562;13.414;2022-10-16T08:50:24;97677.94;;;21.54;63.04
35649;BME280;21768;48.562;13.414;2022-10-16T08:52:50;97674.75;;;21.31;63.67
35649;BME280;21768;48.562;13.414;2022-10-16T08:55:32;97680.66;;;21.27;63.93
35649;BME280;21768;48.562;13.414;2022-10-16T08:58:08;97679.78;;;21.27;63.50
35649;BME280;21768;48.562;13.414;2022-10-16T09:00:35;97672.19;;;21.31;63.21
35649;BME280;21768;48.562;13.414;2022-10-16T09:03:17;97673.25;;;21.71;62.58
35649;BME280;21768;48.562;13.414;2022-10-16T09:13:47;97685.31;;;23.21;58.28
35649;BME280;21768;48.562;13.414;2022-10-16T09:16:30;97675.16;;;23.28;58.42
35649;BME280;21768;48.562;13.414;2022-10-16T09:21:53;97674.47;;;23.82;56.87
35649;BME280;21768;48.562;13.414;2022-10-16T09:24:25;97680.09;;;24.09;55.86
35649;BME280;21768;48.562;13.414;2022-10-16T09:26:50;97678.25;;;24.04;56.43
35649;BME280;21768;48.562;13.414;2022-10-16T09:29:18;97682.09;;;23.78;56.17
35649;BME280;21768;48.562;13.414;2022-10-16T09:31:47;97690.44;;;24.13;55.63
35649;BME280;21768;48.562;13.414;2022-10-16T09:34:24;97686.00;;;26.00;51.39
35649;BME280;21768;48.562;13.414;2022-10-16T09:36:53;97686.88;;;27.31;47.93
35649;BME280;21768;48.562;13.414;2022-10-16T09:39:19;97700.91;;;28.61;45.38
35649;BME280;21768;48.562;13.414;2022-10-16T09:41:45;97698.69;;;29.91;41.75
35649;BME280;21768;48.562;13.414;2022-10-16T09:44:28;97704.94;;;30.77;40.99
35649;BME280;21768;48.562;13.414;2022-10-16T09:47:05;97701.91;;;31.86;38.80
35649;BME280;21768;48.562;13.414;2022-10-16T09:49:36;97708.88;;;32.92;36.18
35649;BME280;21768;48.562;13.414;2022-10-16T09:52:13;97708.56;;;32.05;37.25
35649;BME280;21768;48.562;13.414;2022-10-16T09:57:19;97703.53;;;30.41;40.70
35649;BME280;21768;48.562;13.414;2022-10-16T09:59:55;97702.41;;;32.11;37.06
35649;BME280;21768;48.562;13.414;2022-10-16T10:02:36;97694.63;;;32.06;37.33
35649;BME280;21768;48.562;13.414;2022-10-16T10:08:25;97712.16;;;30.45;39.98
35649;BME280;21768;48.562;13.414;2022-10-16T10:10:50;97705.91;;;30.69;39.94
35649;BME280;21768;48.562;13.414;2022-10-16T10:13:21;97692.91;;;32.05;38.45
35649;BME280;21768;48.562;13.414;2022-10-16T10:15:47;97694.41;;;34.00;34.67
35649;BME280;21768;48.562;13.414;2022-10-16T10:18:20;97697.63;;;34.83;33.23
35649;BME280;21768;48.562;13.414;2022-10-16T10:20:59;97694.59;;;35.27;32.99
35649;BME280;21768;48.562;13.414;2022-10-16T10:23:27;97690.00;;;35.04;31.70
35649;BME280;21768;48.562;13.414;2022-10-16T10:31:28;97691.50;;;34.48;32.48
35649;BME280;21768;48.562;13.414;2022-10-16T10:36:40;97684.19;;;33.90;32.42
35649;BME280;21768;48.562;13.414;2022-10-16T10:39:32;97684.63;;;34.76;33.03
35649;BME280;21768;48.562;13.414;2022-10-16T10:42:18;97679.13;;;34.53;32.57
35649;BME280;21768;48.562;13.414;2022-10-16T11:01:14;97662.00;;;32.33;35.34
35649;BME280;21768;48.562;13.414;2022-10-16T11:06:48;97649.81;;;31.16;36.87
35649;BME280;21768;48.562;13.414;2022-10-16T11:09:39;97650.28;;;31.43;37.68
35649;BME280;21768;48.562;13.414;2022-10-16T11:12:15;97656.78;;;32.83;35.62
35649;BME280;21768;48.562;13.414;2022-10-16T11:14:49;97651.34;;;34.80;34.07
35649;BME280;21768;48.562;13.414;2022-10-16T11:17:44;97653.31;;;36.18;29.52
35649;BME280;21768;48.562;13.414;2022-10-16T11:20:15;97665.53;;;36.19;29.84
35649;BME280;21768;48.562;13.414;2022-10-16T11:22:51;97668.56;;;35.51;30.18
35649;BME280;21768;48.562;13.414;2022-10-16T11:25:27;97659.81;;;36.34;29.99
35649;BME280;21768;48.562;13.414;2022-10-16T11:35:47;97661.91;;;38.95;25.19
35649;BME280;21768;48.562;13.414;2022-10-16T11:40:53;97665.50;;;39.71;23.50
35649;BME280;21768;48.562;13.414;2022-10-16T11:43:41;97669.06;;;39.89;25.04
35649;BME280;21768;48.562;13.414;2022-10-16T11:46:15;97668.31;;;40.74;23.04
35649;BME280;21768;48.562;13.414;2022-10-16T11:48:50;97673.91;;;41.83;22.88
35649;BME280;21768;48.562;13.414;2022-10-16T11:51:33;97668.59;;;41.83;22.16
35649;BME280;21768;48.562;13.414;2022-10-16T11:54:24;97660.16;;;38.75;24.68
35649;BME280;21768;48.562;13.414;2022-10-16T11:56:57;97645.47;;;36.16;27.80
35649;BME280;21768;48.562;13.414;2022-10-16T11:59:32;97653.66;;;34.23;30.95
35649;BME280;21768;48.562;13.414;2022-10-16T12:04:50;97654.34;;;31.67;33.96
35649;BME280;21768;48.562;13.414;2022-10-16T12:07:23;97646.50;;;30.97;36.09
35649;BME280;21768;48.562;13.414;2022-10-16T12:09:49;97649.72;;;30.42;37.79
35649;BME280;21768;48.562;13.414;2022-10-16T12:17:37;97642.56;;;29.55;39.02
35649;BME280;21768;48.562;13.414;2022-10-16T12:22:41;97632.97;;;29.65;39.02
35649;BME280;21768;48.562;13.414;2022-10-16T12:28:06;97635.25;;;30.09;36.90
35649;BME280;21768;48.562;13.414;2022-10-16T12:30:34;97635.69;;;29.37;38.65
35649;BME280;21768;48.562;13.414;2022-10-16T12:33:24;97629.56;;;29.54;39.79
35649;BME280;21768;48.562;13.414;2022-10-16T12:35:51;97625.53;;;31.72;34.63
35649;BME280;21768;48.562;13.414;2022-10-16T12:39:06;97626.25;;;33.65;31.28
35649;BME280;21768;48.562;13.414;2022-10-16T12:41:08;97636.94;;;34.30;29.28
35649;BME280;21768;48.562;13.414;2022-10-16T12:43:41;97629.72;;;34.70;28.92
35649;BME280;21768;48.562;13.414;2022-10-16T12:48:36;97637.41;;;37.67;25.61
35649;BME280;21768;48.562;13.414;2022-10-16T12:53:46;97633.84;;;38.11;24.81
35649;BME280;21768;48.562;13.414;2022-10-16T12:56:33;97636.19;;;38.39;24.35
35649;BME280;21768;48.562;13.414;2022-10-16T13:08:00;97647.09;;;40.92;21.62
35649;BME280;21768;48.562;13.414;2022-10-16T13:11:00;97648.59;;;41.30;21.61
35649;BME280;21768;48.562;13.414;2022-10-16T13:19:37;97669.03;;;41.91;19.84
35649;BME280;21768;48.562;13.414;2022-10-16T13:22:14;97666.88;;;41.98;20.38
35649;BME280;21768;48.562;13.414;2022-10-16T13:29:53;97672.81;;;42.33;19.18
35649;BME280;21768;48.562;13.414;2022-10-16T13:32:21;97672.28;;;39.00;23.51
35649;BME280;21768;48.562;13.414;2022-10-16T13:34:48;97667.25;;;35.64;26.27
35649;BME280;21768;48.562;13.414;2022-10-16T13:37:22;97662.69;;;33.35;30.05
35649;BME280;21768;48.562;13.414;2022-10-16T13:39:48;97668.59;;;32.02;31.85
35649;BME280;21768;48.562;13.414;2022-10-16T13:42:27;97672.69;;;30.91;34.97
35649;BME280;21768;48.562;13.414;2022-10-16T13:44:54;97674.28;;;30.10;37.30
35649;BME280;21768;48.562;13.414;2022-10-16T13:47:28;97669.44;;;29.50;38.46
35649;BME280;21768;48.562;13.414;2022-10-16T13:50:05;97674.06;;;28.84;40.18
35649;BME280;21768;48.562;13.414;2022-10-16T13:52:31;97673.25;;;28.36;41.22
35649;BME280;21768;48.562;13.414;2022-10-16T13:58:19;97671.44;;;28.87;39.92
35649;BME280;21768;48.562;13.414;2022-10-16T14:01:00;97658.69;;;30.06;36.41
35649;BME280;21768;48.562;13.414;2022-10-16T14:03:27;97667.47;;;30.91;37.79
35649;BME280;21768;48.562;13.414;2022-10-16T14:05:55;97666.09;;;30.52;37.62
35649;BME280;21768;48.562;13.414;2022-10-16T14:08:23;97659.84;;;29.65;39.35
35649;BME280;21768;48.562;13.414;2022-10-16T14:10:52;97666.25;;;28.87;40.67
35649;BME280;21768;48.562;13.414;2022-10-16T14:13:44;97660.28;;;30.22;38.30
35649;BME280;21768;48.562;13.414;2022-10-16T14:16:10;97660.78;;;29.51;40.33
35649;BME280;21768;48.562;13.414;2022-10-16T14:18:45;97669.75;;;28.55;41.83
35649;BME280;21768;48.562;13.414;2022-10-16T14:21:14;97670.66;;;27.96;42.20
35649;BME280;21768;48.562;13.414;2022-10-16T14:23:42;97675.81;;;28.63;40.83
35649;BME280;21768;48.562;13.414;2022-10-16T14:28:38;97683.56;;;27.76;41.79
35649;BME280;21768;48.562;13.414;2022-10-16T14:31:25;97684.19;;;27.04;44.86
35649;BME280;21768;48.562;13.414;2022-10-16T14:33:51;97686.41;;;26.49;46.63
35649;BME280;21768;48.562;13.414;2022-10-16T14:36:17;97682.59;;;26.04;47.81
35649;BME280;21768;48.562;13.414;2022-10-16T14:39:06;97672.59;;;25.53;48.80
35649;BME280;21768;48.562;13.414;2022-10-16T14:41:43;97683.19;;;25.02;51.30
35649;BME280;21768;48.562;13.414;2022-10-16T14:44:10;97687.03;;;24.68;52.15
35649;BME280;21768;48.562;13.414;2022-10-16T14:46:39;97686.59;;;24.39;53.16
35649;BME280;21768;48.562;13.414;2022-10-16T14:49:17;97686.88;;;24.04;53.21
35649;BME280;21768;48.562;13.414;2022-10-16T14:51:45;97686.44;;;23.80;54.73
35649;BME280;21768;48.562;13.414;2022-10-16T14:54:15;97683.44;;;23.56;55.38